createdAt,value
2023-09-19T00:00:20.415Z,11.80
2023-09-19T00:03:03.236Z,14.50
2023-09-19T00:05:35.947Z,14.50
2023-09-19T00:08:06.131Z,13.60
2023-09-19T00:10:36.207Z,12.40
2023-09-19T00:13:06.526Z,12.00
2023-09-19T00:15:41.634Z,15.30
2023-09-19T00:18:09.881Z,14.10
2023-09-19T00:20:38.786Z,11.70
2023-09-19T00:23:06.996Z,13.20
2023-09-19T00:25:33.710Z,13.40
2023-09-19T00:28:00.456Z,12.50
2023-09-19T00:30:28.198Z,12.40
2023-09-19T00:32:56.085Z,14.70
2023-09-19T00:35:26.034Z,12.50
2023-09-19T00:37:53.359Z,12.30
2023-09-19T00:40:20.647Z,12.30
2023-09-19T00:42:48.169Z,12.70
2023-09-19T00:45:17.306Z,12.50
2023-09-19T00:47:50.964Z,15.70
2023-09-19T00:50:20.183Z,12.80
2023-09-19T00:52:51.369Z,12.50
2023-09-19T00:55:21.633Z,14.10
2023-09-19T00:57:51.239Z,13.90
2023-09-19T01:00:20.628Z,12.70
2023-09-19T01:02:48.694Z,14.60
2023-09-19T01:05:15.950Z,12.20
2023-09-19T01:07:43.374Z,13.40
2023-09-19T01:10:12.965Z,13.40
2023-09-19T01:13:00.969Z,12.90
2023-09-19T01:15:56.059Z,14.00
2023-09-19T01:18:51.101Z,13.00
2023-09-19T01:21:31.832Z,15.30
2023-09-19T01:24:30.690Z,16.60
2023-09-19T01:27:00.810Z,12.60
2023-09-19T01:29:35.858Z,13.40
2023-09-19T01:32:06.001Z,13.10
2023-09-19T01:34:49.975Z,13.60
2023-09-19T01:37:21.308Z,14.10
2023-09-19T01:39:52.375Z,15.70
2023-09-19T01:42:43.498Z,13.20
2023-09-19T01:45:39.849Z,13.00
2023-09-19T01:48:14.344Z,13.50
2023-09-19T01:50:50.343Z,13.50
2023-09-19T01:53:25.021Z,16.70
2023-09-19T01:55:53.937Z,13.40
2023-09-19T01:58:40.182Z,15.50
2023-09-19T02:01:14.367Z,13.10
2023-09-19T02:03:42.288Z,15.70
2023-09-19T02:06:12.628Z,14.60
2023-09-19T02:08:40.636Z,15.30
2023-09-19T02:11:07.191Z,13.40
2023-09-19T02:13:34.683Z,14.60
2023-09-19T02:16:53.466Z,13.20
2023-09-19T02:19:22.263Z,13.00
2023-09-19T02:21:50.113Z,13.90
2023-09-19T02:24:16.840Z,13.90
2023-09-19T02:26:43.461Z,13.70
2023-09-19T02:29:13.975Z,16.10
2023-09-19T02:31:41.028Z,16.60
2023-09-19T02:34:08.129Z,16.90
2023-09-19T02:36:34.650Z,14.30
2023-09-19T02:39:01.186Z,13.30
2023-09-19T02:41:30.540Z,12.80
2023-09-19T02:43:57.961Z,14.50
2023-09-19T02:46:24.610Z,13.30
2023-09-19T02:48:51.483Z,14.60
2023-09-19T02:51:18.031Z,13.60
2023-09-19T02:53:44.596Z,13.00
2023-09-19T02:56:13.096Z,13.60
2023-09-19T02:58:39.747Z,12.40
2023-09-19T03:01:12.536Z,15.80
2023-09-19T03:03:41.094Z,16.30
2023-09-19T03:06:10.265Z,13.30
2023-09-19T03:08:37.849Z,12.20
2023-09-19T03:11:04.972Z,15.40
2023-09-19T03:13:32.322Z,12.60
2023-09-19T03:15:59.569Z,13.80
2023-09-19T03:18:27.998Z,17.70
2023-09-19T03:20:56.479Z,13.80
2023-09-19T03:23:24.093Z,12.70
2023-09-19T03:25:51.602Z,12.90
2023-09-19T03:28:19.053Z,16.90
2023-09-19T03:30:46.018Z,16.00
2023-09-19T03:33:13.343Z,13.50
2023-09-19T03:35:41.030Z,12.80
2023-09-19T03:38:07.690Z,13.70
2023-09-19T03:40:34.544Z,14.00
2023-09-19T03:43:05.549Z,13.20
2023-09-19T03:45:32.161Z,13.00
2023-09-19T03:47:59.349Z,14.30
2023-09-19T03:50:26.085Z,14.80
2023-09-19T03:52:58.589Z,15.20
2023-09-19T03:55:25.661Z,14.00
2023-09-19T03:57:52.742Z,13.50
2023-09-19T04:00:22.801Z,14.10
2023-09-19T04:02:50.051Z,17.60
2023-09-19T04:05:16.786Z,14.80
2023-09-19T04:07:43.466Z,13.20
2023-09-19T04:10:12.515Z,15.10
2023-09-19T04:12:39.508Z,14.80
2023-09-19T04:15:07.126Z,14.10
2023-09-19T04:17:36.801Z,13.60
2023-09-19T04:20:08.797Z,18.20
2023-09-19T04:22:35.573Z,12.60
2023-09-19T04:25:02.492Z,13.60
2023-09-19T04:27:29.040Z,14.70
2023-09-19T04:30:00.353Z,13.60
2023-09-19T04:32:30.602Z,18.20
2023-09-19T04:35:01.187Z,12.90
2023-09-19T04:37:27.794Z,13.30
2023-09-19T04:39:55.643Z,15.50
2023-09-19T04:42:26.313Z,13.60
2023-09-19T04:44:54.376Z,18.00
2023-09-19T04:47:22.482Z,13.20
2023-09-19T04:49:50.469Z,19.70
2023-09-19T04:52:17.308Z,11.80
2023-09-19T04:54:43.837Z,11.60
2023-09-19T04:57:10.404Z,13.80
2023-09-19T04:59:37.747Z,13.60
2023-09-19T05:02:04.869Z,12.40
2023-09-19T05:04:31.539Z,13.80
2023-09-19T05:06:58.132Z,12.40
2023-09-19T05:09:24.741Z,17.60
2023-09-19T05:11:52.540Z,16.90
2023-09-19T05:14:19.076Z,17.40
2023-09-19T05:16:45.740Z,19.30
2023-09-19T05:19:13.218Z,17.30
2023-09-19T05:21:42.654Z,12.70
2023-09-19T05:24:11.415Z,13.00
2023-09-19T05:26:38.224Z,14.50
2023-09-19T05:29:06.384Z,11.80
2023-09-19T05:31:33.148Z,14.80
2023-09-19T05:34:02.226Z,11.90
2023-09-19T05:36:31.089Z,13.30
2023-09-19T05:38:57.592Z,11.60
2023-09-19T05:41:24.792Z,12.80
2023-09-19T05:43:51.775Z,13.50
2023-09-19T05:46:18.873Z,11.30
2023-09-19T05:48:45.688Z,13.50
2023-09-19T05:51:12.328Z,10.90
2023-09-19T05:53:39.128Z,11.50
2023-09-19T05:56:06.396Z,10.50
2023-09-19T05:58:33.083Z,11.70
2023-09-19T06:01:00.422Z,14.30
2023-09-19T06:03:27.489Z,10.90
2023-09-19T06:05:58.324Z,13.10
2023-09-19T06:08:24.905Z,14.40
2023-09-19T06:10:53.448Z,17.20
2023-09-19T06:13:21.028Z,11.10
2023-09-19T06:15:48.295Z,10.90
2023-09-19T06:18:20.375Z,10.80
2023-09-19T06:20:48.760Z,12.00
2023-09-19T06:23:15.784Z,11.40
2023-09-19T06:25:43.830Z,11.40
2023-09-19T06:28:13.203Z,10.10
2023-09-19T06:30:41.429Z,10.50
2023-09-19T06:33:08.264Z,11.50
2023-09-19T06:35:35.597Z,11.60
2023-09-19T06:38:05.661Z,10.80
2023-09-19T06:42:59.420Z,10.20
2023-09-19T06:45:28.331Z,11.20
2023-09-19T06:47:59.955Z,11.40
2023-09-19T06:50:29.318Z,12.20
2023-09-19T06:52:58.991Z,14.50
2023-09-19T06:57:57.137Z,11.40
2023-09-19T07:00:24.522Z,11.80
2023-09-19T07:03:05.721Z,12.20
2023-09-19T07:05:34.032Z,10.40
2023-09-19T07:08:02.243Z,12.70
2023-09-19T07:10:29.788Z,32.20
2023-09-19T07:12:59.428Z,35.50
2023-09-19T07:15:32.054Z,17.60
2023-09-19T07:17:58.838Z,11.70
2023-09-19T07:20:32.807Z,10.70
2023-09-19T07:23:02.934Z,12.10
2023-09-19T07:25:31.403Z,11.00
2023-09-19T07:28:01.545Z,12.00
2023-09-19T07:30:30.322Z,12.40
2023-09-19T07:32:57.389Z,10.60
2023-09-19T07:35:24.116Z,10.10
2023-09-19T07:37:51.011Z,13.40
2023-09-19T07:40:20.566Z,12.50
2023-09-19T07:42:48.421Z,13.90
2023-09-19T07:45:15.551Z,13.00
2023-09-19T07:47:50.331Z,12.60
2023-09-19T07:50:22.277Z,10.70
2023-09-19T07:52:54.399Z,10.80
2023-09-19T07:55:24.975Z,9.80
2023-09-19T07:57:52.929Z,9.10
2023-09-19T08:00:20.066Z,9.80
2023-09-19T08:02:48.499Z,10.90
2023-09-19T08:05:18.936Z,10.70
2023-09-19T08:07:49.917Z,8.80
2023-09-19T08:10:19.005Z,11.30
2023-09-19T08:12:47.868Z,9.20
2023-09-19T08:15:16.176Z,9.40
2023-09-19T08:17:44.213Z,9.10
2023-09-19T08:20:17.470Z,9.60
2023-09-19T08:22:49.136Z,9.80
2023-09-19T08:25:19.294Z,11.30
2023-09-19T08:27:50.867Z,12.50
2023-09-19T08:30:49.748Z,11.50
2023-09-19T08:33:16.554Z,10.80
2023-09-19T08:35:43.940Z,9.70
2023-09-19T08:38:13.098Z,10.70
2023-09-19T08:40:43.683Z,10.50
2023-09-19T08:43:10.642Z,12.10
2023-09-19T08:45:38.483Z,11.10
2023-09-19T08:48:20.632Z,12.30
2023-09-19T08:51:05.086Z,13.50
2023-09-19T08:53:33.358Z,14.90
2023-09-19T08:56:03.343Z,13.80
2023-09-19T08:58:36.528Z,14.70
2023-09-19T09:01:08.078Z,15.30
2023-09-19T09:03:37.077Z,16.40
2023-09-19T09:06:04.174Z,13.10
2023-09-19T09:08:32.436Z,16.40
2023-09-19T09:11:00.447Z,15.30
2023-09-19T09:13:27.785Z,15.40
2023-09-19T09:15:55.568Z,14.20
2023-09-19T09:18:23.998Z,16.50
2023-09-19T09:20:50.797Z,14.00
2023-09-19T09:23:17.459Z,14.60
2023-09-19T09:25:58.066Z,14.50
2023-09-19T09:28:26.876Z,14.50
2023-09-19T09:30:54.076Z,14.10
2023-09-19T09:33:22.326Z,14.40
2023-09-19T09:35:58.138Z,12.80
2023-09-19T09:38:28.780Z,29.80
2023-09-19T09:41:07.309Z,14.10
2023-09-19T09:43:40.251Z,14.90
2023-09-19T09:46:20.135Z,15.60
2023-09-19T09:48:55.417Z,17.60
2023-09-19T09:51:32.058Z,18.00
2023-09-19T09:54:18.737Z,15.80
2023-09-19T09:57:17.170Z,17.10
2023-09-19T09:59:47.695Z,15.10
2023-09-19T10:02:31.064Z,14.90
2023-09-19T10:05:16.743Z,18.50
2023-09-19T10:07:50.767Z,21.40
2023-09-19T10:10:41.122Z,14.40
2023-09-19T10:13:19.264Z,16.70
2023-09-19T10:15:55.317Z,15.20
2023-09-19T10:18:24.511Z,17.40
2023-09-19T10:20:52.246Z,14.40
2023-09-19T10:23:24.925Z,17.80
2023-09-19T10:25:53.801Z,12.60
2023-09-19T10:28:23.474Z,14.20
2023-09-19T10:30:52.646Z,13.50
2023-09-19T10:33:22.116Z,13.30
2023-09-19T10:38:23.550Z,13.10
2023-09-19T10:40:54.378Z,12.00
2023-09-19T10:43:24.927Z,13.70
2023-09-19T10:45:53.727Z,13.00
2023-09-19T10:48:26.561Z,15.40
2023-09-19T10:51:00.719Z,11.60
2023-09-19T10:53:30.763Z,11.80
2023-09-19T10:56:00.942Z,15.30
2023-09-19T10:58:39.473Z,13.40
2023-09-19T11:01:11.379Z,13.20
2023-09-19T11:03:44.297Z,16.30
2023-09-19T11:06:20.622Z,12.50
2023-09-19T11:08:59.242Z,13.90
2023-09-19T11:11:42.728Z,11.40
2023-09-19T11:14:22.101Z,12.00
2023-09-19T11:17:12.863Z,13.30
2023-09-19T11:20:16.950Z,12.80
2023-09-19T11:22:50.204Z,10.40
2023-09-19T11:25:48.222Z,12.50
2023-09-19T11:28:18.986Z,11.60
2023-09-19T11:30:47.265Z,9.10
2023-09-19T11:33:34.560Z,9.90
2023-09-19T11:36:07.625Z,12.70
2023-09-19T11:38:45.294Z,12.20
2023-09-19T11:41:21.124Z,14.10
2023-09-19T11:43:57.948Z,9.90
2023-09-19T11:46:25.649Z,8.40
2023-09-19T11:48:53.490Z,9.70
2023-09-19T11:51:27.907Z,9.10
2023-09-19T11:53:57.178Z,10.00
2023-09-19T11:56:32.629Z,8.60
2023-09-19T11:59:01.485Z,9.40
2023-09-19T12:01:34.621Z,7.30
2023-09-19T12:04:03.282Z,9.70
2023-09-19T12:06:32.939Z,12.50
2023-09-19T12:09:01.049Z,6.60
2023-09-19T12:11:35.001Z,6.70
2023-09-19T12:14:03.385Z,6.10
2023-09-19T12:16:34.688Z,6.80
2023-09-19T12:19:23.820Z,5.80
2023-09-19T12:22:06.218Z,7.20
2023-09-19T12:24:34.238Z,4.80
2023-09-19T12:27:02.681Z,4.90
2023-09-19T12:29:31.015Z,5.70
2023-09-19T12:32:04.510Z,5.90
2023-09-19T12:34:35.926Z,6.10
2023-09-19T12:37:16.641Z,5.40
2023-09-19T12:39:50.132Z,4.90
2023-09-19T12:42:19.332Z,7.00
2023-09-19T12:44:48.879Z,5.80
2023-09-19T12:47:21.480Z,5.80
2023-09-19T12:50:19.908Z,6.90
2023-09-19T12:52:51.056Z,6.00
2023-09-19T12:55:34.851Z,6.50
2023-09-19T12:58:08.333Z,6.30
2023-09-19T13:00:40.410Z,7.50
2023-09-19T13:03:29.734Z,7.10
2023-09-19T13:05:59.110Z,8.80
2023-09-19T13:08:33.898Z,7.30
2023-09-19T13:11:14.332Z,5.80
2023-09-19T13:14:02.281Z,7.10
2023-09-19T13:16:28.994Z,8.40
2023-09-19T13:18:58.728Z,7.70
2023-09-19T13:24:16.994Z,7.70
2023-09-19T13:26:43.515Z,6.10
2023-09-19T13:29:10.090Z,8.30
2023-09-19T13:31:39.259Z,6.10
2023-09-19T13:34:05.878Z,7.80
2023-09-19T13:36:32.544Z,6.10
2023-09-19T13:38:59.421Z,7.90
2023-09-19T13:41:26.230Z,8.30
2023-09-19T13:43:53.069Z,7.50
2023-09-19T13:46:26.643Z,7.20
2023-09-19T13:48:56.017Z,8.90
2023-09-19T13:51:26.604Z,8.40
2023-09-19T13:53:53.364Z,9.00
2023-09-19T13:56:20.165Z,6.30
2023-09-19T13:58:46.960Z,8.10
2023-09-19T14:01:14.348Z,6.50
2023-09-19T14:03:42.292Z,8.10
2023-09-19T14:06:09.007Z,10.10
2023-09-19T14:08:36.466Z,7.40
2023-09-19T14:11:12.034Z,8.10
2023-09-19T14:13:38.674Z,6.90
2023-09-19T14:16:06.335Z,6.80
2023-09-19T14:18:33.600Z,9.40
2023-09-19T14:21:07.864Z,6.90
2023-09-19T14:23:38.856Z,8.80
2023-09-19T14:26:09.049Z,7.70
2023-09-19T14:28:35.762Z,7.80
2023-09-19T14:31:10.527Z,7.80
2023-09-19T14:33:37.527Z,9.20
2023-09-19T14:36:09.597Z,9.00
2023-09-19T14:38:37.735Z,9.50
2023-09-19T14:41:06.952Z,10.50
2023-09-19T14:43:34.235Z,23.40
2023-09-19T14:46:11.195Z,11.50
2023-09-19T14:48:38.550Z,7.90
2023-09-19T14:51:13.220Z,7.70
2023-09-19T14:53:40.322Z,10.00
2023-09-19T14:56:10.649Z,9.50
2023-09-19T14:58:40.774Z,7.70
2023-09-19T15:01:12.447Z,17.70
2023-09-19T15:03:42.190Z,39.50
2023-09-19T15:06:18.323Z,13.90
2023-09-19T15:08:48.964Z,10.10
2023-09-19T15:11:18.727Z,9.50
2023-09-19T15:13:46.938Z,7.40
2023-09-19T15:16:14.945Z,9.30
2023-09-19T15:18:43.544Z,7.80
2023-09-19T15:21:11.841Z,11.50
2023-09-19T15:23:40.117Z,11.00
2023-09-19T15:26:09.773Z,8.60
2023-09-19T15:31:08.235Z,9.00
2023-09-19T15:33:37.739Z,9.00
2023-09-19T15:36:08.082Z,8.00
2023-09-19T15:39:12.749Z,13.90
2023-09-19T15:41:46.991Z,9.90
2023-09-19T15:44:20.815Z,11.80
2023-09-19T15:46:50.804Z,13.00
2023-09-19T15:49:19.470Z,11.10
2023-09-19T15:51:48.266Z,8.60
2023-09-19T15:54:19.069Z,8.30
2023-09-19T15:56:52.602Z,9.00
2023-09-19T15:59:21.785Z,10.50
2023-09-19T16:01:51.801Z,8.50
2023-09-19T16:04:20.477Z,13.40
2023-09-19T16:06:48.807Z,8.90
2023-09-19T16:09:18.823Z,10.10
2023-09-19T16:11:50.599Z,13.10
2023-09-19T16:14:20.291Z,10.00
2023-09-19T16:16:51.137Z,11.40
2023-09-19T16:19:23.159Z,10.40
2023-09-19T16:21:52.728Z,9.20
2023-09-19T16:24:22.334Z,8.10
2023-09-19T16:26:51.712Z,9.50
2023-09-19T16:29:25.609Z,9.90
2023-09-19T16:39:58.100Z,9.60
2023-09-19T16:42:25.879Z,10.90
2023-09-19T16:44:54.259Z,15.50
2023-09-19T16:47:20.807Z,7.70
2023-09-19T16:49:47.562Z,11.90
2023-09-19T16:52:14.166Z,12.60
2023-09-19T16:54:40.764Z,11.80
2023-09-19T16:57:07.296Z,10.40
2023-09-19T16:59:33.856Z,11.60
2023-09-19T17:02:00.566Z,12.70
2023-09-19T17:04:27.272Z,11.60
2023-09-19T17:06:54.300Z,13.40
2023-09-19T17:09:20.853Z,10.10
2023-09-19T17:11:47.408Z,12.60
2023-09-19T17:14:14.229Z,14.50
2023-09-19T17:16:43.049Z,9.30
2023-09-19T17:19:10.044Z,11.50
2023-09-19T17:21:36.713Z,11.00
2023-09-19T17:24:04.470Z,12.20
2023-09-19T17:26:31.584Z,11.70
2023-09-19T17:28:58.387Z,12.40
2023-09-19T17:31:27.592Z,10.00
2023-09-19T17:33:54.900Z,12.20
2023-09-19T17:36:25.753Z,12.30
2023-09-19T17:38:59.978Z,12.40
2023-09-19T17:41:27.793Z,12.60
2023-09-19T17:44:00.983Z,11.70
2023-09-19T17:46:31.086Z,12.00
2023-09-19T17:49:01.050Z,12.30
2023-09-19T17:51:28.941Z,15.40
2023-09-19T17:54:00.243Z,13.90
2023-09-19T17:56:27.313Z,12.60
2023-09-19T17:58:58.510Z,9.40
2023-09-19T18:01:29.416Z,10.20
2023-09-19T18:04:01.299Z,10.20
2023-09-19T18:06:29.581Z,8.20
2023-09-19T18:08:57.117Z,9.20
2023-09-19T18:11:27.027Z,11.60
2023-09-19T18:13:57.033Z,8.80
2023-09-19T18:16:26.143Z,12.20
2023-09-19T18:18:54.623Z,14.10
2023-09-19T18:21:22.183Z,10.80
2023-09-19T18:24:00.039Z,10.50
2023-09-19T18:26:27.394Z,9.20
2023-09-19T18:28:54.738Z,9.30
2023-09-19T18:31:22.077Z,9.50
2023-09-19T18:33:49.304Z,12.40
2023-09-19T18:36:16.409Z,11.30
2023-09-19T18:38:48.728Z,10.70
2023-09-19T18:41:16.045Z,14.10
2023-09-19T18:43:43.288Z,15.10
2023-09-19T18:46:10.430Z,18.30
2023-09-19T18:48:37.910Z,19.30
2023-09-19T18:51:11.626Z,15.40
2023-09-19T18:53:56.985Z,13.70
2023-09-19T18:56:32.825Z,15.00
2023-09-19T18:58:59.548Z,13.70
2023-09-19T19:01:26.354Z,12.00
2023-09-19T19:03:54.097Z,17.00
2023-09-19T19:06:22.825Z,13.80
2023-09-19T19:08:49.587Z,17.10
2023-09-19T19:11:18.278Z,12.80
2023-09-19T19:13:47.808Z,12.60
2023-09-19T19:16:17.195Z,14.80
2023-09-19T19:18:47.457Z,14.40
2023-09-19T19:21:16.079Z,12.50
2023-09-19T19:23:42.984Z,9.80
2023-09-19T19:26:10.768Z,10.20
2023-09-19T19:28:40.779Z,9.70
2023-09-19T19:31:11.164Z,10.70
2023-09-19T19:33:39.500Z,8.70
2023-09-19T19:36:11.525Z,9.20
2023-09-19T19:38:39.639Z,9.50
2023-09-19T19:41:09.120Z,13.60
2023-09-19T19:43:36.244Z,9.80
2023-09-19T19:46:06.012Z,8.00
2023-09-19T19:48:35.799Z,10.10
2023-09-19T19:53:39.785Z,11.20
2023-09-19T19:56:07.786Z,8.70
2023-09-19T19:58:38.492Z,10.40
2023-09-19T20:01:10.038Z,10.20
2023-09-19T20:03:38.010Z,12.10
2023-09-19T20:06:06.982Z,6.90
2023-09-19T20:08:33.981Z,10.30
2023-09-19T20:11:08.648Z,8.40
2023-09-19T20:13:36.020Z,8.50
2023-09-19T20:16:05.299Z,9.00
2023-09-19T20:18:33.552Z,9.50
2023-09-19T20:21:11.426Z,8.10
2023-09-19T20:23:39.180Z,7.40
2023-09-19T20:26:07.716Z,5.90
2023-09-19T20:28:35.274Z,7.40
2023-09-19T20:31:10.212Z,7.80
2023-09-19T20:33:41.863Z,6.10
2023-09-19T20:36:10.647Z,8.40
2023-09-19T20:38:37.887Z,6.60
2023-09-19T20:41:11.317Z,8.50
2023-09-19T20:43:41.898Z,6.00
2023-09-19T20:46:09.092Z,6.50
2023-09-19T20:48:36.105Z,7.70
2023-09-19T20:51:10.663Z,11.00
2023-09-19T20:53:42.035Z,6.20
2023-09-19T20:56:09.149Z,6.40
2023-09-19T20:58:37.155Z,7.90
2023-09-19T21:01:05.797Z,11.10
2023-09-19T21:03:33.475Z,8.30
2023-09-19T21:06:01.806Z,4.90
2023-09-19T21:08:28.474Z,5.30
2023-09-19T21:10:55.160Z,6.00
2023-09-19T21:13:21.847Z,5.40
2023-09-19T21:15:48.415Z,8.50
2023-09-19T21:18:15.072Z,5.60
2023-09-19T21:20:41.889Z,5.70
2023-09-19T21:23:14.695Z,4.40
2023-09-19T21:25:42.318Z,4.20
2023-09-19T21:28:09.679Z,10.20
2023-09-19T21:30:37.166Z,4.30
2023-09-19T21:33:04.259Z,4.50
2023-09-19T21:35:30.937Z,5.00
2023-09-19T21:37:57.564Z,4.30
2023-09-19T21:40:25.029Z,2.00
2023-09-19T21:42:51.586Z,4.30
2023-09-19T21:45:18.173Z,4.00
2023-09-19T21:47:44.821Z,3.60
2023-09-19T21:50:11.765Z,3.50
2023-09-19T21:52:38.581Z,7.80
2023-09-19T21:55:06.045Z,3.70
2023-09-19T21:57:32.826Z,4.80
2023-09-19T21:59:59.516Z,5.40
2023-09-19T22:02:27.075Z,4.00
2023-09-19T22:04:53.775Z,4.90
2023-09-19T22:07:23.868Z,6.20
2023-09-19T22:09:50.715Z,6.30
2023-09-19T22:12:18.286Z,7.70
2023-09-19T22:14:44.869Z,5.90
2023-09-19T22:17:14.391Z,6.10
2023-09-19T22:19:45.026Z,6.30
2023-09-19T22:22:13.073Z,5.40
2023-09-19T22:24:40.530Z,5.80
2023-09-19T22:27:07.482Z,5.90
2023-09-19T22:29:34.801Z,5.30
2023-09-19T22:32:01.989Z,5.40
2023-09-19T22:34:28.652Z,4.50
2023-09-19T22:36:55.894Z,6.20
2023-09-19T22:39:26.811Z,4.40
2023-09-19T22:41:54.958Z,7.10
2023-09-19T22:44:22.698Z,8.40
2023-09-19T22:46:50.288Z,6.80
2023-09-19T22:49:18.411Z,3.70
2023-09-19T22:52:00.176Z,7.80
2023-09-19T22:54:28.085Z,6.30
2023-09-19T22:56:55.142Z,5.70
2023-09-19T22:59:22.934Z,3.90
2023-09-19T23:01:53.508Z,3.60
2023-09-19T23:04:22.312Z,3.20
2023-09-19T23:07:01.572Z,4.20
2023-09-19T23:09:29.049Z,4.80
2023-09-19T23:12:11.436Z,6.30
2023-09-19T23:14:42.831Z,9.40
2023-09-19T23:17:18.228Z,7.20
2023-09-19T23:19:49.784Z,9.30
2023-09-19T23:22:19.742Z,8.90
2023-09-19T23:24:50.934Z,12.10
2023-09-19T23:27:20.108Z,8.10
2023-09-19T23:29:47.608Z,6.20
2023-09-19T23:32:16.315Z,10.10
2023-09-19T23:34:44.266Z,6.20
2023-09-19T23:37:11.063Z,7.70
2023-09-19T23:39:41.690Z,5.10
2023-09-19T23:42:13.684Z,8.50
2023-09-19T23:44:44.051Z,5.10
2023-09-19T23:47:12.085Z,5.80
2023-09-19T23:49:40.509Z,6.80
2023-09-19T23:52:07.274Z,7.20
2023-09-19T23:54:36.202Z,5.30
2023-09-19T23:57:07.539Z,6.20
2023-09-19T23:59:34.526Z,8.10
